Avondale, Arizona
Current Conditions -  °F | °C
As of 11:47 AM on Sunday 21 Dec 2014 (Local Time) from KGYR Reporting Station
Scattered Clouds Scattered Clouds  
Wind Chill: 14°   Ceiling: Unl
Heat Index: 14°   Visibility: 10mi
Dew Point:   Wind: 5mph
Humidity: 59%   Direction: NA
Pressure: 30.12"   Gusts: NA
Location:  33.44°N, 112.34°W
Report Text: KGYR 211847Z VRB04KT 10SM FEW180 SCT250 14/06 A3012
Loading
Personal Weather Stations






























Interactive Weather Map New forecast layout! Learn more

10-Day Weather Forecast

Advertisements
Track Severe Weather on mobile